createdAt,value
2019-03-15T00:01:50.906Z,3.30
2019-03-15T00:04:23.620Z,3.30
2019-03-15T00:07:09.638Z,3.27
2019-03-15T00:09:40.341Z,3.40
2019-03-15T00:12:12.032Z,3.77
2019-03-15T00:14:43.746Z,3.60
2019-03-15T00:17:14.345Z,3.53
2019-03-15T00:19:51.871Z,3.37
2019-03-15T00:22:22.527Z,4.00
2019-03-15T00:24:55.243Z,4.73
2019-03-15T00:27:25.886Z,4.87
2019-03-15T00:29:56.555Z,5.23
2019-03-15T00:32:28.253Z,5.63
2019-03-15T00:34:58.839Z,5.00
2019-03-15T00:37:29.428Z,4.77
2019-03-15T00:40:00.286Z,4.80
2019-03-15T00:42:30.735Z,5.87
2019-03-15T00:45:01.313Z,4.53
2019-03-15T00:47:31.976Z,5.30
2019-03-15T00:50:02.647Z,5.10
2019-03-15T00:52:33.328Z,5.00
2019-03-15T00:55:04.091Z,5.73
2019-03-15T00:57:34.670Z,6.07
2019-03-15T01:00:07.048Z,6.67
2019-03-15T01:02:37.690Z,6.00
2019-03-15T01:05:08.470Z,4.97
2019-03-15T01:07:39.028Z,4.87
2019-03-15T01:10:09.729Z,4.90
2019-03-15T01:12:40.471Z,5.50
2019-03-15T01:15:13.313Z,5.30
2019-03-15T01:17:43.971Z,4.63
2019-03-15T01:20:14.675Z,6.10
2019-03-15T01:22:45.286Z,5.47
2019-03-15T01:25:15.919Z,4.90
2019-03-15T01:27:46.660Z,5.20
2019-03-15T01:30:24.832Z,5.13
2019-03-15T01:32:55.505Z,5.10
2019-03-15T01:35:34.279Z,5.07
2019-03-15T01:38:05.969Z,4.87
2019-03-15T01:41:08.665Z,4.57
2019-03-15T01:43:39.418Z,4.67
2019-03-15T01:46:10.002Z,3.87
2019-03-15T01:48:42.599Z,4.50
2019-03-15T01:51:26.486Z,4.17
2019-03-15T01:53:57.112Z,4.53
2019-03-15T01:56:27.711Z,4.27
2019-03-15T01:59:00.295Z,3.80
2019-03-15T02:01:31.063Z,3.87
2019-03-15T02:04:01.743Z,3.93
2019-03-15T02:07:00.889Z,3.87
2019-03-15T02:09:31.463Z,4.20
2019-03-15T02:12:02.045Z,3.87
2019-03-15T02:14:33.680Z,3.47
2019-03-15T02:17:04.345Z,3.97
2019-03-15T02:19:35.429Z,3.80
2019-03-15T02:22:19.202Z,3.97
2019-03-15T02:24:49.779Z,4.50
2019-03-15T02:27:20.612Z,3.67
2019-03-15T02:29:51.195Z,3.00
2019-03-15T02:32:21.853Z,3.53
2019-03-15T02:34:53.373Z,3.70
2019-03-15T02:37:24.295Z,3.47
2019-03-15T02:39:54.787Z,3.27
2019-03-15T02:42:26.212Z,3.57
2019-03-15T02:44:58.043Z,3.53
2019-03-15T02:47:28.624Z,3.80
2019-03-15T02:50:01.294Z,3.77
2019-03-15T02:52:39.703Z,3.70
2019-03-15T02:55:15.619Z,3.80
2019-03-15T02:57:52.401Z,3.27
2019-03-15T03:00:23.151Z,3.60
2019-03-15T03:02:54.189Z,3.30
2019-03-15T03:05:24.867Z,3.50
2019-03-15T03:07:56.909Z,3.67
2019-03-15T03:10:29.325Z,3.50
2019-03-15T03:13:15.368Z,3.33
2019-03-15T03:15:46.001Z,3.40
2019-03-15T03:18:27.121Z,3.13
2019-03-15T03:21:01.412Z,3.27
2019-03-15T03:23:32.170Z,3.30
2019-03-15T03:26:02.760Z,3.10
2019-03-15T03:28:33.405Z,3.33
2019-03-15T03:31:15.434Z,2.97
2019-03-15T03:33:45.146Z,3.60
2019-03-15T03:36:16.396Z,3.50
2019-03-15T03:38:57.420Z,3.40
2019-03-15T03:41:28.325Z,4.07
2019-03-15T03:47:12.848Z,3.73
2019-03-15T03:49:43.563Z,4.30
2019-03-15T03:52:14.298Z,4.77
2019-03-15T03:54:44.952Z,5.47
2019-03-15T03:57:15.599Z,5.43
2019-03-15T04:00:01.349Z,6.60
2019-03-15T04:02:35.182Z,5.03
2019-03-15T04:05:06.204Z,5.40
2019-03-15T04:07:36.792Z,3.90
2019-03-15T04:10:07.668Z,3.87
2019-03-15T04:12:38.283Z,3.13
2019-03-15T04:15:11.078Z,3.67
2019-03-15T04:17:54.347Z,3.40
2019-03-15T04:20:25.980Z,3.23
2019-03-15T04:22:56.862Z,3.07
2019-03-15T04:25:27.648Z,3.53
2019-03-15T04:27:58.290Z,3.43
2019-03-15T04:30:28.913Z,4.37
2019-03-15T04:33:16.009Z,3.07
2019-03-15T04:35:46.763Z,3.27
2019-03-15T04:38:17.439Z,3.73
2019-03-15T04:40:57.857Z,4.40
2019-03-15T04:43:28.604Z,3.43
2019-03-15T04:45:59.199Z,2.90
2019-03-15T04:48:33.124Z,3.90
2019-03-15T04:51:03.660Z,2.83
2019-03-15T04:53:34.296Z,3.73
2019-03-15T04:56:04.934Z,3.03
2019-03-15T04:58:36.585Z,2.87
2019-03-15T05:01:07.206Z,3.30
2019-03-15T05:03:37.859Z,3.27
2019-03-15T05:06:08.583Z,3.00
2019-03-15T05:08:51.604Z,3.47
2019-03-15T05:11:24.292Z,3.83
2019-03-15T05:13:58.610Z,3.30
2019-03-15T05:16:32.198Z,3.63
2019-03-15T05:19:04.777Z,3.47
2019-03-15T05:21:35.404Z,3.53
2019-03-15T05:24:06.007Z,3.60
2019-03-15T05:26:36.665Z,3.70
2019-03-15T05:29:07.302Z,4.17
2019-03-15T05:31:37.889Z,3.60
2019-03-15T05:34:29.655Z,4.67
2019-03-15T05:37:08.224Z,3.90
2019-03-15T05:39:52.338Z,4.20
2019-03-15T05:42:22.935Z,5.13
2019-03-15T05:45:07.567Z,4.40
2019-03-15T05:47:43.804Z,3.83
2019-03-15T05:50:16.500Z,4.47
2019-03-15T05:52:47.232Z,5.60
2019-03-15T05:55:19.012Z,4.67
2019-03-15T05:57:49.598Z,5.43
2019-03-15T06:00:41.387Z,5.03
2019-03-15T06:03:16.857Z,5.27
2019-03-15T06:05:57.399Z,5.30
2019-03-15T06:08:28.062Z,5.23
2019-03-15T06:10:58.681Z,5.43
2019-03-15T06:13:29.354Z,5.27
2019-03-15T06:16:00.101Z,5.57
2019-03-15T06:18:30.725Z,6.73
2019-03-15T06:21:06.406Z,5.53
2019-03-15T06:23:44.384Z,5.67
2019-03-15T06:26:16.326Z,5.17
2019-03-15T06:28:47.038Z,4.93
2019-03-15T06:31:17.753Z,5.23
2019-03-15T06:33:48.730Z,5.60
2019-03-15T06:36:20.436Z,6.23
2019-03-15T06:38:53.087Z,5.30
2019-03-15T06:41:23.749Z,4.90
2019-03-15T06:43:54.415Z,5.60
2019-03-15T06:46:25.167Z,5.83
2019-03-15T06:48:55.784Z,5.10
2019-03-15T06:51:28.427Z,5.13
2019-03-15T06:54:10.761Z,5.60
2019-03-15T06:56:32.464Z,5.57
2019-03-15T06:59:03.151Z,5.67
2019-03-15T07:01:34.834Z,6.30
2019-03-15T07:04:07.548Z,6.10
2019-03-15T07:06:38.168Z,5.00
2019-03-15T07:09:08.832Z,4.30
2019-03-15T07:11:43.448Z,4.57
2019-03-15T07:14:14.161Z,4.40
2019-03-15T07:16:46.935Z,4.07
2019-03-15T07:19:26.101Z,3.87
2019-03-15T07:21:51.030Z,4.33
2019-03-15T07:24:27.072Z,3.80
2019-03-15T07:26:57.648Z,4.37
2019-03-15T07:29:30.173Z,4.50
2019-03-15T07:32:15.822Z,3.60
2019-03-15T07:34:59.098Z,4.80
2019-03-15T07:37:36.943Z,4.37
2019-03-15T07:40:08.213Z,4.50
2019-03-15T07:42:43.076Z,5.17
2019-03-15T07:45:23.566Z,5.50
2019-03-15T07:48:22.460Z,6.07
2019-03-15T07:50:48.834Z,5.80
2019-03-15T07:53:21.506Z,4.90
2019-03-15T07:55:54.559Z,4.90
2019-03-15T07:58:36.282Z,4.67
2019-03-15T08:01:07.034Z,4.43
2019-03-15T08:03:37.633Z,4.00
2019-03-15T08:06:14.240Z,4.30
2019-03-15T08:09:15.887Z,4.60
2019-03-15T08:11:46.544Z,4.80
2019-03-15T08:14:17.244Z,5.73
2019-03-15T08:16:47.919Z,5.00
2019-03-15T08:19:18.545Z,5.60
2019-03-15T08:21:52.570Z,5.40
2019-03-15T08:24:24.187Z,4.83
2019-03-15T08:26:54.814Z,5.00
2019-03-15T08:29:31.384Z,5.60
2019-03-15T08:32:03.067Z,4.60
2019-03-15T08:34:36.807Z,5.17
2019-03-15T08:37:09.451Z,5.60
2019-03-15T08:39:53.357Z,4.70
2019-03-15T08:42:24.000Z,4.97
2019-03-15T08:44:54.554Z,4.47
2019-03-15T08:47:28.772Z,5.63
2019-03-15T08:49:59.491Z,5.47
2019-03-15T08:52:30.204Z,5.67
2019-03-15T08:55:07.319Z,5.87
2019-03-15T08:57:39.105Z,6.10
2019-03-15T09:00:12.851Z,5.93
2019-03-15T09:02:54.134Z,6.53
2019-03-15T09:05:24.799Z,7.43
2019-03-15T09:07:55.479Z,8.40
2019-03-15T09:10:26.160Z,10.37
2019-03-15T09:12:57.674Z,11.87
2019-03-15T09:15:34.264Z,11.63
2019-03-15T09:18:04.961Z,10.47
2019-03-15T09:20:35.729Z,10.23
2019-03-15T09:23:07.385Z,10.43
2019-03-15T09:25:39.047Z,9.17
2019-03-15T09:28:09.643Z,9.00
2019-03-15T09:30:52.771Z,8.90
2019-03-15T09:33:23.534Z,9.33
2019-03-15T09:35:54.160Z,8.93
2019-03-15T09:38:26.765Z,10.10
2019-03-15T09:40:58.521Z,10.13
2019-03-15T09:43:29.247Z,10.00
2019-03-15T09:46:16.579Z,9.73
2019-03-15T09:49:01.435Z,10.20
2019-03-15T09:51:36.163Z,9.63
2019-03-15T09:54:06.849Z,9.37
2019-03-15T09:56:38.548Z,8.33
2019-03-15T09:59:19.509Z,9.13
2019-03-15T10:01:50.343Z,7.93
2019-03-15T10:04:20.974Z,8.00
2019-03-15T10:06:53.663Z,7.40
2019-03-15T10:09:24.311Z,7.33
2019-03-15T10:11:56.451Z,7.20
2019-03-15T10:14:29.246Z,7.97
2019-03-15T10:16:59.943Z,7.43
2019-03-15T10:19:32.548Z,7.23
2019-03-15T10:22:03.217Z,7.90
2019-03-15T10:24:33.901Z,7.73
2019-03-15T10:27:04.574Z,8.87
2019-03-15T10:29:35.195Z,8.33
2019-03-15T10:32:11.259Z,9.33
2019-03-15T10:34:41.930Z,8.80
2019-03-15T10:37:12.556Z,9.57
2019-03-15T10:39:45.161Z,9.40
2019-03-15T10:42:17.025Z,8.97
2019-03-15T10:44:47.703Z,8.70
2019-03-15T10:47:18.241Z,8.67
2019-03-15T10:50:01.637Z,8.67
2019-03-15T10:52:42.242Z,9.07
2019-03-15T10:55:24.515Z,9.17
2019-03-15T10:57:57.375Z,9.77
2019-03-15T11:00:28.249Z,9.47
2019-03-15T11:02:58.848Z,10.43
2019-03-15T11:05:29.606Z,10.33
2019-03-15T11:08:00.340Z,11.30
2019-03-15T11:10:31.025Z,12.23
2019-03-15T11:13:02.623Z,13.33
2019-03-15T11:15:40.206Z,13.07
2019-03-15T11:18:10.895Z,13.93
2019-03-15T11:20:41.565Z,14.13
2019-03-15T11:23:12.251Z,14.10
2019-03-15T11:25:44.893Z,14.73
2019-03-15T11:28:20.560Z,14.70
2019-03-15T11:30:51.259Z,16.10
2019-03-15T11:33:22.188Z,13.87
2019-03-15T11:35:52.845Z,12.97
2019-03-15T11:38:23.509Z,14.07
2019-03-15T11:41:00.240Z,14.53
2019-03-15T11:43:30.819Z,13.53
2019-03-15T11:46:02.539Z,14.30
2019-03-15T11:48:33.379Z,13.90
2019-03-15T11:51:05.137Z,13.77
2019-03-15T11:53:37.859Z,14.07
2019-03-15T11:56:09.465Z,13.30
2019-03-15T11:58:40.220Z,13.20
2019-03-15T12:01:10.819Z,13.27
2019-03-15T12:03:52.533Z,12.70
2019-03-15T12:06:13.906Z,13.00
2019-03-15T12:08:49.124Z,13.53
2019-03-15T12:11:19.801Z,12.40
2019-03-15T12:13:59.201Z,12.47
2019-03-15T12:16:40.963Z,12.50
2019-03-15T12:19:11.605Z,11.30
2019-03-15T12:21:42.277Z,11.57
2019-03-15T12:24:16.549Z,11.40
2019-03-15T12:26:55.239Z,11.23
2019-03-15T12:29:25.834Z,10.47
2019-03-15T12:31:58.568Z,10.20
2019-03-15T12:34:31.272Z,13.47
2019-03-15T12:37:07.701Z,9.73
2019-03-15T12:39:53.995Z,8.53
2019-03-15T12:42:29.875Z,8.13
2019-03-15T12:45:01.537Z,8.93
2019-03-15T12:47:32.155Z,8.90
2019-03-15T12:50:02.881Z,8.70
2019-03-15T12:52:46.568Z,8.40
2019-03-15T12:55:06.212Z,8.40
2019-03-15T12:57:37.850Z,7.57
2019-03-15T13:00:10.868Z,7.37
2019-03-15T13:02:41.636Z,7.17
2019-03-15T13:05:13.384Z,6.70
2019-03-15T13:07:51.209Z,6.67
2019-03-15T13:10:27.816Z,6.33
2019-03-15T13:12:58.806Z,6.43
2019-03-15T13:15:32.042Z,6.80
2019-03-15T13:18:01.854Z,6.80
2019-03-15T13:20:32.529Z,6.50
2019-03-15T13:23:03.218Z,6.53
2019-03-15T13:25:33.793Z,6.83
2019-03-15T13:28:06.417Z,6.87
2019-03-15T13:30:42.216Z,6.37
2019-03-15T13:33:30.151Z,6.57
2019-03-15T13:36:06.499Z,6.23
2019-03-15T13:38:37.214Z,6.20
2019-03-15T13:41:07.921Z,6.57
2019-03-15T13:43:38.524Z,5.90
2019-03-15T13:46:10.477Z,9.83
2019-03-15T13:48:41.197Z,5.77
2019-03-15T13:51:13.035Z,6.70
2019-03-15T13:53:48.712Z,6.03
2019-03-15T13:56:19.513Z,5.57
2019-03-15T13:58:57.084Z,5.27
2019-03-15T14:01:26.647Z,4.90
2019-03-15T14:03:57.300Z,5.03
2019-03-15T14:06:27.811Z,5.70
2019-03-15T14:08:59.538Z,5.13
2019-03-15T14:11:30.189Z,4.63
2019-03-15T14:14:07.497Z,4.17
2019-03-15T14:16:46.164Z,4.13
2019-03-15T14:19:17.840Z,4.00
2019-03-15T14:21:48.869Z,4.30
2019-03-15T14:24:22.640Z,4.20
2019-03-15T14:26:52.104Z,4.23
2019-03-15T14:29:23.752Z,3.67
2019-03-15T14:31:58.681Z,3.63
2019-03-15T14:34:29.497Z,3.30
2019-03-15T14:37:02.273Z,3.47
2019-03-15T14:39:36.282Z,3.73
2019-03-15T14:42:11.902Z,3.93
2019-03-15T14:44:42.748Z,3.27
2019-03-15T14:47:18.569Z,3.13
2019-03-15T14:49:49.533Z,2.93
2019-03-15T14:52:33.196Z,2.70
2019-03-15T14:55:04.152Z,3.30
2019-03-15T14:57:34.887Z,2.97
2019-03-15T15:00:16.201Z,3.23
2019-03-15T15:02:47.002Z,2.93
2019-03-15T15:05:18.839Z,2.77
2019-03-15T15:07:49.577Z,2.97
2019-03-15T15:10:22.478Z,3.20
2019-03-15T15:12:53.216Z,3.40
2019-03-15T15:15:25.971Z,3.27
2019-03-15T15:17:57.772Z,2.77
2019-03-15T15:20:28.863Z,2.60
2019-03-15T15:23:22.865Z,2.60
2019-03-15T15:25:53.645Z,3.80
2019-03-15T15:28:24.388Z,2.83
2019-03-15T15:30:55.065Z,2.43
2019-03-15T15:33:33.723Z,3.20
2019-03-15T15:36:04.481Z,3.13
2019-03-15T15:38:36.191Z,2.63
2019-03-15T15:41:08.887Z,3.67
2019-03-15T15:43:39.551Z,3.50
2019-03-15T15:46:13.704Z,5.60
2019-03-15T15:48:45.363Z,3.80
2019-03-15T15:51:27.420Z,4.33
2019-03-15T15:53:59.057Z,4.30
2019-03-15T15:56:29.786Z,3.87
2019-03-15T15:59:03.231Z,3.77
2019-03-15T16:01:34.153Z,4.53
2019-03-15T16:04:05.839Z,4.33
2019-03-15T16:06:36.643Z,4.10
2019-03-15T16:09:08.067Z,4.23
2019-03-15T16:11:44.360Z,3.60
2019-03-15T16:14:19.141Z,3.73
2019-03-15T16:16:49.931Z,3.53
2019-03-15T16:19:20.759Z,3.87
2019-03-15T16:21:51.444Z,3.67
2019-03-15T16:24:23.209Z,3.50
2019-03-15T16:26:57.052Z,4.03
2019-03-15T16:29:36.917Z,3.93
2019-03-15T16:32:07.584Z,4.30
2019-03-15T16:34:47.252Z,4.00
2019-03-15T16:37:24.932Z,4.17
2019-03-15T16:39:58.540Z,4.60
2019-03-15T16:42:29.298Z,4.17
2019-03-15T16:45:09.440Z,5.10
2019-03-15T16:47:41.290Z,4.77
2019-03-15T16:50:37.842Z,4.90
2019-03-15T16:53:13.456Z,5.23
2019-03-15T16:55:45.304Z,5.17
2019-03-15T16:58:17.053Z,5.10
2019-03-15T17:00:52.709Z,5.20
2019-03-15T17:03:27.575Z,3.57
2019-03-15T17:06:01.931Z,3.43
2019-03-15T17:08:32.637Z,3.17
2019-03-15T17:11:03.330Z,2.27
2019-03-15T17:13:38.283Z,2.50
2019-03-15T17:16:16.996Z,2.17
2019-03-15T17:19:01.801Z,2.40
2019-03-15T17:21:32.683Z,2.60
2019-03-15T17:24:19.752Z,2.97
2019-03-15T17:26:51.605Z,3.10
2019-03-15T17:29:26.475Z,3.20
2019-03-15T17:31:59.856Z,3.17
2019-03-15T17:34:44.184Z,3.50
2019-03-15T17:37:15.069Z,3.73
2019-03-15T17:39:51.860Z,3.30
2019-03-15T17:42:32.092Z,3.10
2019-03-15T17:45:02.959Z,3.93
2019-03-15T17:47:34.743Z,3.40
2019-03-15T17:50:06.493Z,2.93
2019-03-15T17:52:38.039Z,1.70
2019-03-15T17:55:10.202Z,2.27
2019-03-15T17:57:46.674Z,2.00
2019-03-15T18:00:21.661Z,1.97
2019-03-15T18:02:54.418Z,2.00
2019-03-15T18:05:41.556Z,2.03
2019-03-15T18:08:12.434Z,2.50
2019-03-15T18:10:43.026Z,2.50
2019-03-15T18:13:13.820Z,2.70
2019-03-15T18:15:44.657Z,1.97
2019-03-15T18:18:15.551Z,2.40
2019-03-15T18:20:46.333Z,2.00
2019-03-15T18:23:17.067Z,2.20
2019-03-15T18:25:47.759Z,1.93
2019-03-15T18:28:20.408Z,2.47
2019-03-15T18:30:51.111Z,1.90
2019-03-15T18:33:21.913Z,2.43
2019-03-15T18:35:54.789Z,2.20
2019-03-15T18:38:25.455Z,2.50
2019-03-15T18:40:59.714Z,3.00
2019-03-15T18:43:36.075Z,2.47
2019-03-15T18:46:06.812Z,2.90
2019-03-15T18:48:37.567Z,3.00
2019-03-15T18:51:18.982Z,3.13
2019-03-15T18:54:17.332Z,3.23
2019-03-15T18:56:49.358Z,3.13
2019-03-15T18:59:20.213Z,3.47
2019-03-15T19:02:01.739Z,3.20
2019-03-15T19:04:33.467Z,3.50
2019-03-15T19:07:06.899Z,3.30
2019-03-15T19:09:43.892Z,3.83
2019-03-15T19:12:14.545Z,3.50
2019-03-15T19:14:45.419Z,4.13
2019-03-15T19:17:16.184Z,3.57
2019-03-15T19:19:48.859Z,4.60
2019-03-15T19:22:19.689Z,6.27
2019-03-15T19:24:50.421Z,6.40
2019-03-15T19:27:21.404Z,7.77
2019-03-15T19:29:56.330Z,9.47
2019-03-15T19:32:27.363Z,8.87
2019-03-15T19:35:09.153Z,9.00
2019-03-15T19:37:40.042Z,8.10
2019-03-15T19:40:21.344Z,9.23
2019-03-15T19:42:52.180Z,9.50
2019-03-15T19:45:23.127Z,9.93
2019-03-15T19:47:53.747Z,9.93
2019-03-15T19:50:29.772Z,9.03
2019-03-15T19:53:37.198Z,7.93
2019-03-15T19:56:11.341Z,7.70
2019-03-15T19:58:42.760Z,7.33
2019-03-15T20:01:13.708Z,6.63
2019-03-15T20:03:52.795Z,5.70
2019-03-15T20:06:23.497Z,5.10
2019-03-15T20:08:54.461Z,4.37
2019-03-15T20:11:25.296Z,4.17
2019-03-15T20:13:56.120Z,4.90
2019-03-15T20:16:27.795Z,4.00
2019-03-15T20:18:58.621Z,4.23
2019-03-15T20:21:37.720Z,3.80
2019-03-15T20:24:08.533Z,3.57
2019-03-15T20:26:39.621Z,3.57
2019-03-15T20:29:10.480Z,3.77
2019-03-15T20:31:44.709Z,3.70
2019-03-15T20:34:15.505Z,3.70
2019-03-15T20:36:49.249Z,3.50
2019-03-15T20:39:20.020Z,3.73
2019-03-15T20:41:50.703Z,3.90
2019-03-15T20:44:28.768Z,4.13
2019-03-15T20:46:56.148Z,3.90
2019-03-15T20:49:36.415Z,3.30
2019-03-15T20:52:07.221Z,3.57
2019-03-15T20:54:39.389Z,3.57
2019-03-15T20:57:18.304Z,3.93
2019-03-15T20:59:49.483Z,4.37
2019-03-15T21:02:20.163Z,3.93
2019-03-15T21:04:50.831Z,3.20
2019-03-15T21:07:27.513Z,4.17
2019-03-15T21:09:58.285Z,4.83
2019-03-15T21:12:29.036Z,5.07
2019-03-15T21:15:00.177Z,6.97
2019-03-15T21:17:40.189Z,10.27
2019-03-15T21:20:17.477Z,10.37
2019-03-15T21:22:57.432Z,10.33
2019-03-15T21:25:28.380Z,10.37
2019-03-15T21:28:00.106Z,9.80
2019-03-15T21:30:30.858Z,11.70
2019-03-15T21:33:01.499Z,11.23
2019-03-15T21:35:32.290Z,12.23
2019-03-15T21:38:04.138Z,10.63
2019-03-15T21:40:39.543Z,8.40
2019-03-15T21:43:10.339Z,7.53
2019-03-15T21:45:47.089Z,8.77
2019-03-15T21:48:28.769Z,10.87
2019-03-15T21:51:00.337Z,10.57
2019-03-15T21:53:35.194Z,9.10
2019-03-15T21:56:08.022Z,8.40
2019-03-15T21:58:38.697Z,7.63
2019-03-15T22:01:09.482Z,6.50
2019-03-15T22:03:46.152Z,6.43
2019-03-15T22:06:18.869Z,6.53
2019-03-15T22:08:50.494Z,7.20
2019-03-15T22:11:21.774Z,7.73
2019-03-15T22:13:52.824Z,6.93
2019-03-15T22:16:28.574Z,6.80
2019-03-15T22:19:18.791Z,6.23
2019-03-15T22:21:53.486Z,5.13
2019-03-15T22:24:30.540Z,5.00
2019-03-15T22:27:01.686Z,4.30
2019-03-15T22:29:53.760Z,4.00
2019-03-15T22:32:25.749Z,3.60
2019-03-15T22:34:56.393Z,3.87
2019-03-15T22:37:27.400Z,3.70
2019-03-15T22:40:00.005Z,3.57
2019-03-15T22:42:30.758Z,3.50
2019-03-15T22:45:01.372Z,4.37
2019-03-15T22:47:39.439Z,3.90
2019-03-15T22:50:16.387Z,3.87
2019-03-15T22:52:47.703Z,3.60
2019-03-15T22:55:19.677Z,3.80
2019-03-15T22:57:59.819Z,3.83
2019-03-15T23:00:37.945Z,4.20
2019-03-15T23:03:11.219Z,4.07
2019-03-15T23:05:42.475Z,3.87
2019-03-15T23:08:13.308Z,3.87
2019-03-15T23:10:51.506Z,3.33
2019-03-15T23:13:30.249Z,4.70
2019-03-15T23:16:01.489Z,4.17
2019-03-15T23:18:32.328Z,3.63
2019-03-15T23:21:03.159Z,3.93
2019-03-15T23:23:43.627Z,4.40
2019-03-15T23:26:14.409Z,4.43
2019-03-15T23:28:47.264Z,3.90
2019-03-15T23:31:17.697Z,4.40
2019-03-15T23:34:03.077Z,4.23
2019-03-15T23:36:34.935Z,3.93
2019-03-15T23:39:07.057Z,3.87
2019-03-15T23:41:57.538Z,4.10
2019-03-15T23:44:28.091Z,4.27
2019-03-15T23:47:03.031Z,4.10
2019-03-15T23:49:33.741Z,3.80
2019-03-15T23:52:13.938Z,4.87
2019-03-15T23:54:44.790Z,4.63
2019-03-15T23:57:15.935Z,4.97
2019-03-15T23:59:53.517Z,5.37
